Time;durP1;ratioP1;P1;durP2;ratioP2;P2;SDS_P1;SDS_P2;PMS_P1;PMS_P2;Temp;Humidity;BMP_temperature;BMP_pressure;BME280_temperature;BME280_humidity;BME280_pressure;Samples;Min_cycle;Max_cycle;Signal;HPM_P1;HPM_P2
2021/11/26 00:00:22;;;;;;;12.48;4.22;;;;;;;5.17;88.88;100691.69;4994532;28;20105;-48
2021/11/26 00:02:50;;;;;;;12.98;4.50;;;;;;;5.15;89.05;100690.25;4994445;28;20053;-51
2021/11/26 00:05:18;;;;;;;16.80;4.80;;;;;;;5.13;89.38;100688.63;4994851;28;20042;-50
2021/11/26 00:07:45;;;;;;;10.45;4.13;;;;;;;5.14;89.34;100686.72;4995279;28;20042;-50
2021/11/26 00:10:13;;;;;;;13.00;4.40;;;;;;;5.18;89.64;100676.28;4994154;28;20042;-48
2021/11/26 00:12:47;;;;;;;10.27;4.25;;;;;;;5.23;90.15;100676.41;4993962;28;20519;-52
2021/11/26 00:15:27;;;;;;;10.18;3.97;;;;;;;5.25;89.57;100671.59;4994648;28;20057;-49
2021/11/26 00:17:57;;;;;;;9.68;4.10;;;;;;;5.29;89.63;100662.78;4994672;28;20072;-50
2021/11/26 00:20:25;;;;;;;11.55;4.10;;;;;;;5.31;89.82;100657.13;4994649;28;20068;-51
2021/11/26 00:22:52;;;;;;;10.95;3.75;;;;;;;5.30;89.64;100642.00;4993871;28;20049;-50
2021/11/26 00:25:20;;;;;;;9.60;4.20;;;;;;;5.29;89.62;100641.16;4994381;28;20118;-47
2021/11/26 00:27:48;;;;;;;8.60;3.95;;;;;;;5.30;89.73;100636.59;4994243;28;20407;-52
2021/11/26 00:30:16;;;;;;;10.05;4.00;;;;;;;5.28;89.68;100631.41;4994958;28;20441;-51
2021/11/26 00:32:44;;;;;;;10.88;4.03;;;;;;;5.28;89.80;100628.72;4993532;28;20054;-50
2021/11/26 00:35:12;;;;;;;13.32;4.40;;;;;;;5.30;90.06;100620.38;4994211;28;20053;-53
2021/11/26 00:37:39;;;;;;;11.90;4.20;;;;;;;5.31;90.00;100616.59;4993959;28;20055;-52
2021/11/26 00:40:07;;;;;;;12.35;4.53;;;;;;;5.31;89.83;100608.50;4995068;28;20047;-48
2021/11/26 00:42:35;;;;;;;12.63;4.45;;;;;;;5.32;89.88;100602.06;4994116;28;20061;-52
2021/11/26 00:45:03;;;;;;;10.82;4.15;;;;;;;5.31;90.19;100600.41;4993468;28;20055;-49
2021/11/26 00:47:31;;;;;;;11.73;4.15;;;;;;;5.32;90.01;100596.66;4994255;28;20045;-50
2021/11/26 00:49:58;;;;;;;10.90;4.28;;;;;;;5.30;90.21;100587.97;4994636;28;20184;-52
2021/11/26 00:52:26;;;;;;;9.77;4.20;;;;;;;5.31;90.21;100592.28;5007658;28;20050;-48
2021/11/26 00:54:54;;;;;;;10.55;3.75;;;;;;;5.30;90.17;100580.66;4993251;28;20042;-49
2021/11/26 00:57:21;;;;;;;12.23;3.90;;;;;;;5.30;90.60;100579.84;4994050;28;20046;-50
2021/11/26 00:59:50;;;;;;;11.32;3.80;;;;;;;5.30;90.78;100577.16;4993118;28;20459;-51
2021/11/26 01:02:17;;;;;;;11.20;3.95;;;;;;;5.30;91.26;100577.16;4994269;28;20046;-51
2021/11/26 01:04:45;;;;;;;10.77;4.13;;;;;;;5.33;91.20;100568.56;4993530;28;20429;-50
2021/11/26 01:07:13;;;;;;;11.50;4.00;;;;;;;5.35;91.08;100558.34;4993755;28;20069;-51
2021/11/26 01:09:41;;;;;;;9.82;3.88;;;;;;;5.34;91.05;100559.41;4992947;28;20405;-49
2021/11/26 01:12:09;;;;;;;8.02;3.63;;;;;;;5.33;90.90;100555.06;4994523;28;20062;-50
2021/11/26 01:14:36;;;;;;;9.43;3.42;;;;;;;5.33;91.29;100550.47;4993970;28;20074;-53
2021/11/26 01:17:04;;;;;;;10.13;3.90;;;;;;;5.32;91.31;100546.13;4993418;28;20050;-50
2021/11/26 01:19:32;;;;;;;11.63;4.10;;;;;;;5.32;91.32;100537.22;4993146;28;20043;-48
2021/11/26 01:21:59;;;;;;;8.77;3.55;;;;;;;5.31;91.52;100540.97;4992923;28;20057;-50
2021/11/26 01:24:27;;;;;;;10.73;3.40;;;;;;;5.31;91.54;100530.16;5006300;28;20053;-51
2021/11/26 01:26:55;;;;;;;11.70;3.85;;;;;;;5.31;91.62;100540.97;4993347;28;20162;-49
2021/11/26 01:29:23;;;;;;;7.85;3.58;;;;;;;5.29;91.06;100541.22;4992702;28;20053;-47
2021/11/26 01:31:51;;;;;;;9.93;3.38;;;;;;;5.29;91.59;100543.09;4993219;28;20053;-54
2021/11/26 01:34:18;;;;;;;11.38;3.67;;;;;;;5.27;91.73;100546.03;4994235;28;20122;-52
2021/11/26 01:36:49;;;;;;;8.32;3.42;;;;;;;5.28;92.07;100536.06;4993099;28;20038;-48
2021/11/26 01:39:16;;;;;;;9.90;3.20;;;;;;;5.28;92.10;100531.47;4992544;28;20043;-48
2021/11/26 01:41:44;;;;;;;10.02;4.10;;;;;;;5.29;91.83;100526.88;4995720;28;20052;-46
2021/11/26 01:44:12;;;;;;;11.70;3.88;;;;;;;5.26;92.00;100521.97;5001563;28;20050;-50
2021/11/26 01:46:43;;;;;;;8.45;3.65;;;;;;;5.25;92.32;100514.94;4992606;28;20035;-50
2021/11/26 01:49:13;;;;;;;8.48;3.53;;;;;;;5.24;92.77;100500.59;4993107;28;20060;-52
2021/11/26 01:51:41;;;;;;;8.60;3.47;;;;;;;5.25;92.71;100487.91;4992783;28;20061;-55
2021/11/26 01:54:10;;;;;;;8.98;3.28;;;;;;;5.25;92.60;100494.13;4992287;28;20053;-55
2021/11/26 01:56:37;;;;;;;11.38;3.70;;;;;;;5.25;93.00;100490.63;4992557;28;20408;-52
2021/11/26 01:59:05;;;;;;;10.20;3.17;;;;;;;5.28;92.97;100492.84;4992406;28;20049;-52
2021/11/26 02:01:33;;;;;;;7.32;3.33;;;;;;;5.28;93.19;100487.44;4993150;28;20560;-50
2021/11/26 02:04:01;;;;;;;9.20;3.20;;;;;;;5.28;93.20;100485.53;4991982;28;20501;-52
2021/11/26 02:06:29;;;;;;;9.38;3.17;;;;;;;5.30;92.99;100474.50;4992737;28;20042;-53
2021/11/26 02:08:56;;;;;;;7.00;3.17;;;;;;;5.30;93.19;100475.31;4992071;28;20058;-53
2021/11/26 02:11:24;;;;;;;8.68;3.25;;;;;;;5.30;93.38;100469.09;4992418;28;20051;-52
2021/11/26 02:13:52;;;;;;;9.10;3.35;;;;;;;5.29;93.78;100467.44;4992840;28;20432;-51
2021/11/26 02:16:19;;;;;;;8.05;3.40;;;;;;;5.29;93.85;100468.28;4998652;28;20369;-47
2021/11/26 02:18:48;;;;;;;8.23;3.47;;;;;;;5.30;93.73;100459.13;4991015;28;20050;-50
2021/11/26 02:21:18;;;;;;;8.52;3.47;;;;;;;5.28;93.77;100455.00;4992404;28;20046;-51
2021/11/26 02:23:47;;;;;;;10.27;3.33;;;;;;;5.27;93.87;100446.09;4993389;28;20050;-51
2021/11/26 02:26:15;;;;;;;8.85;2.90;;;;;;;5.28;94.21;100438.81;4991890;28;20035;-50
2021/11/26 02:28:42;;;;;;;6.07;2.80;;;;;;;5.30;94.15;100429.41;4991768;28;20038;-50
2021/11/26 02:31:10;;;;;;;7.68;3.03;;;;;;;5.30;94.13;100425.88;5008129;28;20053;-53
2021/11/26 02:33:38;;;;;;;7.53;2.95;;;;;;;5.27;94.31;100421.78;4999425;28;20066;-50
2021/11/26 02:36:06;;;;;;;6.28;2.80;;;;;;;5.28;94.46;100412.59;4997877;28;20035;-49
2021/11/26 02:38:33;;;;;;;6.85;2.63;;;;;;;5.30;94.22;100417.78;4991993;28;20045;-52
2021/11/26 02:41:01;;;;;;;6.80;2.63;;;;;;;5.29;94.41;100400.75;4991557;28;20047;-50
2021/11/26 02:43:29;;;;;;;6.05;2.40;;;;;;;5.30;94.70;100404.28;5004551;28;20039;-48
2021/11/26 02:45:56;;;;;;;6.68;2.80;;;;;;;5.31;94.38;100395.09;4992209;28;20050;-52
2021/11/26 02:48:24;;;;;;;7.72;2.80;;;;;;;5.29;94.23;100402.63;4990790;28;20050;-53
2021/11/26 02:50:51;;;;;;;5.47;2.78;;;;;;;5.27;94.66;100393.97;4991902;28;20457;-53
2021/11/26 02:53:20;;;;;;;6.13;2.40;;;;;;;5.28;94.99;100396.41;4994491;28;20046;-51
2021/11/26 02:55:48;;;;;;;7.63;2.88;;;;;;;5.31;94.96;100397.78;4991095;28;20515;-51
2021/11/26 02:58:16;;;;;;;5.32;2.10;;;;;;;5.31;94.63;100400.50;4990729;28;20045;-49
2021/11/26 03:00:46;;;;;;;3.75;2.10;;;;;;;5.30;94.56;100391.56;4992197;28;20054;-47
2021/11/26 03:03:14;;;;;;;4.30;2.03;;;;;;;5.29;94.75;100386.41;4991204;28;20074;-51
2021/11/26 03:05:42;;;;;;;4.63;2.10;;;;;;;5.29;94.81;100379.16;4991789;28;20046;-52
2021/11/26 03:08:10;;;;;;;5.95;2.20;;;;;;;5.29;95.17;100381.00;4991814;28;20057;-51
2021/11/26 03:10:38;;;;;;;5.57;2.17;;;;;;;5.29;94.98;100376.44;4991272;28;20057;-52
2021/11/26 03:13:08;;;;;;;4.78;2.00;;;;;;;5.30;95.08;100366.47;4992783;28;20503;-52
2021/11/26 03:15:37;;;;;;;6.05;2.35;;;;;;;5.31;94.78;100368.09;4991656;28;20061;-53
2021/11/26 03:18:05;;;;;;;4.80;1.98;;;;;;;5.31;95.22;100365.38;4995578;28;20100;-50
2021/11/26 03:20:33;;;;;;;5.55;2.10;;;;;;;5.31;95.13;100354.56;4995627;28;20050;-54
2021/11/26 03:23:01;;;;;;;2.65;2.00;;;;;;;5.32;95.11;100356.22;4996534;28;20069;-55
2021/11/26 03:25:28;;;;;;;5.78;1.80;;;;;;;5.30;95.13;100345.66;4994470;28;20129;-54
2021/11/26 03:27:56;;;;;;;4.32;1.92;;;;;;;5.31;95.41;100330.25;4995552;28;20043;-50
2021/11/26 03:30:24;;;;;;;5.97;2.30;;;;;;;5.30;95.44;100325.94;4995542;28;20061;-49
2021/11/26 03:32:52;;;;;;;3.35;1.60;;;;;;;5.32;95.45;100326.53;4995288;28;20050;-46
2021/11/26 03:35:20;;;;;;;4.50;1.90;;;;;;;5.31;95.26;100319.47;4996118;28;20508;-48
2021/11/26 03:37:48;;;;;;;3.53;1.75;;;;;;;5.31;95.07;100314.06;4995319;28;20401;-45
2021/11/26 03:40:18;;;;;;;2.72;1.77;;;;;;;5.27;95.16;100312.94;4994588;28;20101;-47
2021/11/26 03:42:46;;;;;;;4.43;2.00;;;;;;;5.26;95.76;100306.69;4996385;28;20050;-50
2021/11/26 03:45:15;;;;;;;4.60;2.00;;;;;;;5.28;96.09;100306.44;4995251;28;20373;-47
2021/11/26 03:47:43;;;;;;;4.75;1.75;;;;;;;5.31;95.83;100295.16;4995322;28;20116;-47
2021/11/26 03:50:11;;;;;;;5.05;2.28;;;;;;;5.33;95.68;100290.31;4995322;28;20047;-50
2021/11/26 03:52:38;;;;;;;5.18;2.00;;;;;;;5.34;95.93;100281.16;4995268;28;20050;-46
2021/11/26 03:55:12;;;;;;;4.03;1.92;;;;;;;5.34;96.09;100276.59;5007422;28;20050;-49
2021/11/26 03:57:40;;;;;;;4.28;1.73;;;;;;;5.35;95.85;100277.41;4994896;28;20050;-47
2021/11/26 04:00:09;;;;;;;3.58;1.60;;;;;;;5.36;96.00;100265.50;4995016;28;20069;-48
2021/11/26 04:02:40;;;;;;;4.80;1.90;;;;;;;5.36;96.14;100262.00;4994837;28;20073;-50
2021/11/26 04:05:08;;;;;;;6.30;2.40;;;;;;;5.37;96.27;100259.06;4995627;28;20481;-51
2021/11/26 04:07:37;;;;;;;3.22;1.73;;;;;;;5.37;96.07;100247.44;4994948;28;20048;-50
2021/11/26 04:10:06;;;;;;;3.75;1.70;;;;;;;5.38;96.33;100249.88;4994104;28;20050;-48
2021/11/26 04:12:35;;;;;;;4.60;1.92;;;;;;;5.40;96.23;100245.06;4994582;28;20058;-52
2021/11/26 04:15:06;;;;;;;6.72;1.98;;;;;;;5.41;96.25;100243.16;4995368;28;20054;-52
2021/11/26 04:17:35;;;;;;;3.63;1.73;;;;;;;5.40;96.19;100231.53;4982061;28;20429;-50
2021/11/26 04:20:04;;;;;;;4.07;2.30;;;;;;;5.40;96.24;100225.31;4994546;28;20049;-53
2021/11/26 04:22:32;;;;;;;4.50;1.70;;;;;;;5.39;96.38;100219.13;4994057;28;20527;-49
2021/11/26 04:25:00;;;;;;;7.95;2.28;;;;;;;5.42;96.53;100217.78;4995179;28;20526;-53
2021/11/26 04:27:28;;;;;;;6.10;1.98;;;;;;;5.43;96.29;100217.53;4993983;28;20121;-50
2021/11/26 04:29:55;;;;;;;8.02;2.30;;;;;;;5.44;96.41;100208.38;4994437;28;20046;-51
2021/11/26 04:32:25;;;;;;;3.95;1.70;;;;;;;5.45;96.16;100206.47;4993976;28;20042;-52
2021/11/26 04:34:53;;;;;;;7.28;2.30;;;;;;;5.44;96.25;100194.06;4992776;28;20047;-49
2021/11/26 04:37:21;;;;;;;6.95;2.38;;;;;;;5.42;96.11;100194.28;4993922;28;20105;-52
2021/11/26 04:39:49;;;;;;;6.28;2.15;;;;;;;5.42;96.20;100190.78;4993872;28;20037;-48
2021/11/26 04:42:17;;;;;;;6.28;2.15;;;;;;;5.42;96.45;100191.59;4993940;28;20053;-49
2021/11/26 04:44:44;;;;;;;5.70;2.05;;;;;;;5.42;96.56;100180.78;4994056;28;20050;-51
2021/11/26 04:47:12;;;;;;;4.95;2.15;;;;;;;5.41;96.59;100184.56;4995359;28;20097;-48
2021/11/26 04:49:40;;;;;;;8.63;2.50;;;;;;;5.40;96.64;100174.00;4993985;28;20557;-48
2021/11/26 04:52:08;;;;;;;5.10;1.90;;;;;;;5.38;96.66;100168.84;4993450;28;20492;-53
2021/11/26 04:54:35;;;;;;;5.07;1.95;;;;;;;5.38;96.75;100171.53;4992581;28;20046;-49
2021/11/26 04:57:03;;;;;;;4.75;2.30;;;;;;;5.38;96.81;100159.91;4993788;28;20050;-52
2021/11/26 04:59:31;;;;;;;3.47;1.83;;;;;;;5.36;96.85;100154.75;4994176;28;20122;-50
2021/11/26 05:01:58;;;;;;;6.80;2.45;;;;;;;5.37;96.97;100155.59;4993605;28;20042;-51
2021/11/26 05:04:26;;;;;;;5.75;2.40;;;;;;;5.36;97.02;100143.13;4993965;28;20054;-49
2021/11/26 05:06:54;;;;;;;8.00;2.60;;;;;;;5.37;97.08;100144.78;4993317;28;20038;-49
2021/11/26 05:09:22;;;;;;;8.00;2.42;;;;;;;5.37;97.37;100147.50;4994238;28;20053;-50
2021/11/26 05:11:51;;;;;;;5.55;2.47;;;;;;;5.37;97.39;100139.38;4993345;28;20043;-48
2021/11/26 05:14:19;;;;;;;5.47;2.28;;;;;;;5.37;97.94;100134.78;4993241;28;20488;-52
2021/11/26 05:16:47;;;;;;;5.03;2.38;;;;;;;5.40;97.71;100128.06;4993582;28;20052;-46
2021/11/26 05:19:14;;;;;;;8.13;2.35;;;;;;;5.38;97.42;100120.22;4994784;28;20046;-48
2021/11/26 05:21:42;;;;;;;6.13;2.30;;;;;;;5.40;97.42;100112.69;4992835;28;20050;-47
2021/11/26 05:24:12;;;;;;;6.65;2.35;;;;;;;5.40;97.39;100109.16;4992973;28;20043;-50
2021/11/26 05:26:40;;;;;;;8.52;2.60;;;;;;;5.41;97.44;100110.78;4993374;28;20046;-47
2021/11/26 05:29:08;;;;;;;6.28;2.75;;;;;;;5.39;97.48;100108.34;4994085;28;20042;-51
2021/11/26 05:31:36;;;;;;;6.78;2.63;;;;;;;5.36;97.55;100103.44;4993212;28;20064;-51
2021/11/26 05:34:05;;;;;;;7.68;2.70;;;;;;;5.34;97.71;100101.00;4992652;28;20049;-53
2021/11/26 05:36:34;;;;;;;7.82;2.80;;;;;;;5.35;97.40;100099.09;4992739;28;20116;-50
2021/11/26 05:39:03;;;;;;;8.27;2.80;;;;;;;5.33;97.63;100093.94;4991780;28;20046;-48
2021/11/26 05:41:31;;;;;;;6.85;2.90;;;;;;;5.34;97.58;100089.38;4993941;28;20070;-50
2021/11/26 05:43:58;;;;;;;7.68;3.00;;;;;;;5.33;97.74;100074.22;4992832;28;20053;-49
2021/11/26 05:46:26;;;;;;;9.18;3.22;;;;;;;5.33;97.27;100075.03;4993178;28;20062;-54
2021/11/26 05:48:54;;;;;;;8.38;3.03;;;;;;;5.33;97.55;100069.63;4992910;28;20102;-52
2021/11/26 05:51:21;;;;;;;9.00;3.13;;;;;;;5.30;97.60;100072.84;4992556;28;20484;-47
2021/11/26 05:53:49;;;;;;;12.32;3.42;;;;;;;5.26;97.86;100069.00;4992159;28;20445;-51
2021/11/26 05:56:16;;;;;;;12.43;3.85;;;;;;;5.24;98.19;100056.81;4992342;28;20084;-50
2021/11/26 05:58:44;;;;;;;9.57;3.55;;;;;;;5.21;97.97;100052.75;4993695;28;20049;-51
2021/11/26 06:01:12;;;;;;;10.40;3.75;;;;;;;5.21;98.13;100049.25;4992843;28;20045;-51
2021/11/26 06:03:40;;;;;;;7.38;2.85;;;;;;;5.27;98.94;100040.13;4991193;28;20101;-54
2021/11/26 06:06:07;;;;;;;6.72;2.78;;;;;;;5.33;98.17;100039.13;4992083;28;20045;-48
2021/11/26 06:08:35;;;;;;;7.63;3.17;;;;;;;5.33;97.93;100031.81;4995488;28;20492;-51
2021/11/26 06:11:02;;;;;;;8.40;3.38;;;;;;;5.39;98.39;100030.00;5002967;28;20039;-50
2021/11/26 06:13:30;;;;;;;8.73;3.00;;;;;;;5.38;97.62;100022.97;4988343;28;20137;-55
2021/11/26 06:15:58;;;;;;;7.88;2.92;;;;;;;5.37;97.34;100020.53;4992201;28;20049;-55
2021/11/26 06:18:26;;;;;;;10.40;3.72;;;;;;;5.37;97.50;100018.63;4991751;28;20497;-52
2021/11/26 06:20:53;;;;;;;9.02;4.00;;;;;;;5.34;97.34;100011.06;4992036;28;20038;-49
2021/11/26 06:23:22;;;;;;;9.80;3.80;;;;;;;5.33;97.45;100009.41;4645682;28;9999735;-49
2021/11/26 06:25:49;;;;;;;7.43;3.13;;;;;;;5.38;98.36;100000.53;4989494;28;20037;-49
2021/11/26 06:28:17;;;;;;;9.20;4.13;;;;;;;5.39;97.71;100000.28;4991202;28;20045;-47
2021/11/26 06:30:44;;;;;;;12.65;3.83;;;;;;;5.36;97.19;99994.56;4989960;28;20042;-49
2021/11/26 06:33:12;;;;;;;10.75;4.28;;;;;;;5.33;96.98;99985.09;4989431;28;20038;-48
2021/11/26 06:35:40;;;;;;;13.40;4.47;;;;;;;5.38;97.85;99990.53;4989583;28;20046;-50
2021/11/26 06:38:08;;;;;;;9.60;3.05;;;;;;;5.40;98.09;99966.81;4989963;28;20752;-51
2021/11/26 06:40:35;;;;;;;10.80;3.80;;;;;;;5.45;98.16;99974.13;4990777;28;20046;-49
2021/11/26 06:43:06;;;;;;;10.40;4.28;;;;;;;5.44;98.30;99967.94;4990119;28;20054;-48
2021/11/26 06:45:33;;;;;;;11.23;4.47;;;;;;;5.40;97.23;99966.00;4990095;28;20091;-52
2021/11/26 06:48:01;;;;;;;11.20;4.60;;;;;;;5.42;97.88;99966.56;4989931;28;20476;-48
2021/11/26 06:50:29;;;;;;;13.80;3.90;;;;;;;5.43;99.08;99966.28;4989884;28;20043;-52
2021/11/26 06:52:56;;;;;;;11.13;4.18;;;;;;;5.41;97.59;99951.41;4993229;28;20389;-47
2021/11/26 06:55:24;;;;;;;12.75;4.75;;;;;;;5.37;97.08;99955.69;4993714;28;20509;-49
2021/11/26 06:57:52;;;;;;;14.13;5.57;;;;;;;5.31;96.89;99942.13;4993651;28;20057;-53
2021/11/26 07:00:20;;;;;;;13.68;4.78;;;;;;;5.32;96.61;99948.38;4994348;28;20038;-51
2021/11/26 07:02:47;;;;;;;12.75;4.65;;;;;;;5.31;96.54;99944.81;4992875;28;20046;-50
2021/11/26 07:05:15;;;;;;;15.18;5.05;;;;;;;5.32;96.21;99940.25;4995930;28;20049;-52
2021/11/26 07:07:44;;;;;;;12.85;4.88;;;;;;;5.33;96.32;99929.19;4996776;28;20053;-56
2021/11/26 07:10:13;;;;;;;13.93;5.22;;;;;;;5.29;95.79;99927.25;4995260;28;20073;-53
2021/11/26 07:12:41;;;;;;;11.90;4.85;;;;;;;5.28;96.02;99920.22;4997977;28;20042;-54
2021/11/26 07:15:11;;;;;;;14.75;5.25;;;;;;;5.28;96.02;99920.22;4992465;28;20054;-46
2021/11/26 07:17:39;;;;;;;12.88;4.95;;;;;;;5.28;96.08;99909.41;5001744;28;20061;-52
2021/11/26 07:20:07;;;;;;;16.00;5.40;;;;;;;5.39;98.20;99910.31;4995724;28;20046;-47
2021/11/26 07:22:35;;;;;;;14.80;4.95;;;;;;;5.35;96.57;99899.22;4995444;28;20370;-52
2021/11/26 07:25:06;;;;;;;14.27;4.80;;;;;;;5.38;97.87;99909.50;4999068;28;20069;-49
2021/11/26 07:27:34;;;;;;;14.02;5.28;;;;;;;5.39;97.34;99904.91;4994533;28;20041;-51
2021/11/26 07:30:04;;;;;;;12.18;3.95;;;;;;;5.41;97.28;99892.81;4996062;28;20053;-49
2021/11/26 07:32:31;;;;;;;16.63;6.00;;;;;;;5.45;98.28;99903.91;4992693;28;20046;-53
2021/11/26 07:34:59;;;;;;;17.77;5.75;;;;;;;5.37;96.89;99902.50;4993647;28;20038;-52
2021/11/26 07:37:27;;;;;;;16.77;6.15;;;;;;;5.32;96.20;99915.94;4993131;28;20073;-52
2021/11/26 07:39:54;;;;;;;18.15;6.35;;;;;;;5.29;95.75;99913.75;4993843;28;20041;-51
2021/11/26 07:42:22;;;;;;;19.13;6.32;;;;;;;5.25;95.32;99909.94;4998760;28;20487;-50
2021/11/26 07:44:49;;;;;;;13.38;5.35;;;;;;;5.23;95.35;99898.56;4995534;28;20523;-50
2021/11/26 07:47:18;;;;;;;16.20;5.72;;;;;;;5.18;94.37;99893.94;4990588;28;20038;-46
2021/11/26 07:49:46;;;;;;;16.52;5.90;;;;;;;5.25;96.39;99894.53;4994282;28;20050;-50
2021/11/26 07:52:14;;;;;;;14.55;5.43;;;;;;;5.32;97.84;99883.53;4990511;28;20070;-52
2021/11/26 07:54:42;;;;;;;15.98;5.68;;;;;;;5.39;98.62;99875.19;4994480;28;20054;-48
2021/11/26 07:57:10;;;;;;;14.93;5.00;;;;;;;5.38;98.71;99877.09;4992155;28;20046;-50
2021/11/26 07:59:39;;;;;;;18.55;5.65;;;;;;;5.40;99.82;99863.34;4994137;28;20046;-49
2021/11/26 08:02:07;;;;;;;17.33;6.15;;;;;;;5.34;96.45;99859.78;4993251;28;20051;-51
2021/11/26 08:04:35;;;;;;;14.88;6.03;;;;;;;5.29;95.38;99857.84;4994049;28;20121;-48
2021/11/26 08:07:03;;;;;;;15.80;5.63;;;;;;;5.33;96.65;99847.34;4993847;28;20058;-50
2021/11/26 08:09:31;;;;;;;16.40;5.80;;;;;;;5.37;97.83;99845.75;4993245;28;20390;-50
2021/11/26 08:11:59;;;;;;;15.57;5.60;;;;;;;5.36;96.43;99837.91;4995517;28;20061;-49
2021/11/26 08:14:26;;;;;;;14.90;4.72;;;;;;;5.36;97.29;99846.81;4993674;28;20058;-54
2021/11/26 08:16:55;;;;;;;21.83;6.35;;;;;;;5.36;96.93;99838.72;4993178;28;20492;-52
2021/11/26 08:19:24;;;;;;;20.20;6.25;;;;;;;5.40;96.78;99829.03;4992595;28;20095;-49
2021/11/26 08:21:53;;;;;;;16.15;6.18;;;;;;;5.30;94.79;99826.25;4992674;28;20036;-51
2021/11/26 08:24:22;;;;;;;15.07;5.18;;;;;;;5.30;95.77;99823.56;4993118;28;20053;-49
2021/11/26 08:26:50;;;;;;;17.42;5.78;;;;;;;5.50;100.00;99815.59;4993013;28;20073;-51
2021/11/26 08:29:18;;;;;;;16.98;5.72;;;;;;;5.53;98.72;99811.56;4993403;28;20043;-50
2021/11/26 08:31:46;;;;;;;18.48;5.43;;;;;;;5.74;100.00;99805.22;4992473;28;20044;-52
2021/11/26 08:34:14;;;;;;;13.75;4.80;;;;;;;5.77;100.00;99798.47;4994383;28;20046;-46
2021/11/26 08:36:41;;;;;;;12.95;4.65;;;;;;;5.90;100.00;99787.22;4991394;28;20488;-50
2021/11/26 08:39:10;;;;;;;17.00;5.05;;;;;;;5.87;100.00;99793.16;4989967;28;20035;-53
2021/11/26 08:41:37;;;;;;;14.65;5.20;;;;;;;5.74;100.00;99793.59;4989025;28;20049;-49
2021/11/26 08:44:05;;;;;;;13.13;4.93;;;;;;;5.85;100.00;99787.19;4992679;28;20516;-51
2021/11/26 08:46:33;;;;;;;11.38;3.78;;;;;;;5.78;100.00;99783.09;4994046;28;20046;-54
2021/11/26 08:49:01;;;;;;;13.15;4.78;;;;;;;5.82;100.00;99774.19;4993907;28;20050;-52
2021/11/26 08:51:33;;;;;;;16.50;5.53;;;;;;;5.87;100.00;99776.09;4993552;28;20515;-49
2021/11/26 08:54:02;;;;;;;15.95;4.90;;;;;;;5.60;99.36;99765.41;4994826;28;20078;-55
2021/11/26 08:56:30;;;;;;;20.17;6.45;;;;;;;5.39;96.19;99754.47;4994178;28;20064;-47
2021/11/26 08:58:58;;;;;;;16.67;5.53;;;;;;;5.29;95.31;99754.41;4993684;28;20046;-49
2021/11/26 09:01:31;;;;;;;18.67;5.90;;;;;;;5.17;94.00;99746.50;4993489;28;20141;-49
2021/11/26 09:03:59;;;;;;;17.02;5.05;;;;;;;5.53;100.00;99744.84;4996431;28;20516;-51
2021/11/26 09:06:27;;;;;;;16.30;4.80;;;;;;;5.62;100.00;99744.34;4993927;28;20072;-51
2021/11/26 09:08:54;;;;;;;14.50;4.47;;;;;;;5.95;100.00;99735.88;4993201;28;20046;-51
2021/11/26 09:11:23;;;;;;;11.65;4.20;;;;;;;5.87;100.00;99735.53;4994032;28;20125;-47
2021/11/26 09:13:50;;;;;;;14.65;4.30;;;;;;;5.86;100.00;99715.00;4992264;28;20038;-47
2021/11/26 09:16:18;;;;;;;14.73;4.40;;;;;;;6.21;100.00;99717.06;4993095;28;20424;-52
2021/11/26 09:18:45;;;;;;;18.42;5.18;;;;;;;6.25;100.00;99720.84;4993397;28;20043;-51
2021/11/26 09:21:14;;;;;;;14.60;4.75;;;;;;;6.08;100.00;99714.84;4993654;28;20042;-49
2021/11/26 09:23:43;;;;;;;14.32;4.97;;;;;;;5.91;100.00;99718.53;4994341;28;20109;-46
2021/11/26 09:26:11;;;;;;;12.13;4.15;;;;;;;5.74;100.00;99710.63;4993338;28;20053;-48
2021/11/26 09:28:38;;;;;;;12.63;4.38;;;;;;;6.09;100.00;99700.25;4992730;28;20128;-51
2021/11/26 09:31:06;;;;;;;12.18;4.07;;;;;;;6.31;100.00;99697.34;4984326;28;20047;-49
2021/11/26 09:33:37;;;;;;;17.05;4.72;;;;;;;6.35;100.00;99693.00;4994276;28;20044;-48
2021/11/26 09:36:09;;;;;;;11.48;3.80;;;;;;;6.27;100.00;99678.09;4992129;28;20050;-47
2021/11/26 09:38:39;;;;;;;13.70;3.67;;;;;;;6.64;100.00;99671.69;4992715;28;20411;-52
2021/11/26 09:41:11;;;;;;;11.32;4.22;;;;;;;6.72;100.00;99663.00;4992821;28;20050;-49
2021/11/26 09:44:02;;;;;;;14.68;4.35;;;;;;;6.62;100.00;99657.59;4993684;28;20046;-48
2021/11/26 09:46:34;;;;;;;11.43;4.30;;;;;;;6.73;100.00;99655.69;4993104;28;20050;-51
2021/11/26 09:49:02;;;;;;;12.45;4.65;;;;;;;6.80;100.00;99648.09;4992721;28;20496;-49
2021/11/26 09:51:30;;;;;;;10.98;3.80;;;;;;;6.72;100.00;99644.06;4984554;28;20046;-47
2021/11/26 09:53:58;;;;;;;15.05;4.30;;;;;;;6.58;100.00;99640.25;5004161;28;20069;-49
2021/11/26 09:56:26;;;;;;;15.68;5.22;;;;;;;6.35;100.00;99628.91;4991740;28;20066;-49
2021/11/26 09:58:53;;;;;;;14.60;4.63;;;;;;;6.52;100.00;99619.72;4993029;28;20373;-52
2021/11/26 10:01:21;;;;;;;9.98;3.80;;;;;;;6.67;100.00;99617.00;4991610;28;20049;-51
2021/11/26 10:03:51;;;;;;;15.00;5.47;;;;;;;6.56;100.00;99607.25;4992913;28;20038;-50
2021/11/26 10:06:37;;;;;;;11.20;3.75;;;;;;;6.60;100.00;99611.84;4992729;28;20411;-53
2021/11/26 10:09:11;;;;;;;14.20;4.47;;;;;;;6.43;100.00;99605.09;4992340;28;20377;-50
2021/11/26 10:12:02;;;;;;;11.13;4.20;;;;;;;6.51;100.00;99585.59;4992160;28;20469;-48
2021/11/26 10:14:34;;;;;;;12.13;3.85;;;;;;;6.83;100.00;99580.72;4993178;28;20457;-51
2021/11/26 10:17:16;;;;;;;8.25;3.80;;;;;;;7.03;100.00;99569.00;4992254;28;20465;-51
2021/11/26 10:19:58;;;;;;;12.73;4.40;;;;;;;6.59;100.00;99556.13;4992456;28;20066;-49
2021/11/26 10:22:26;;;;;;;13.82;4.15;;;;;;;6.31;100.00;99554.78;4992417;28;20189;-51
2021/11/26 10:25:09;;;;;;;12.80;3.80;;;;;;;6.24;100.00;99551.53;4992994;28;20712;-50
2021/11/26 10:27:49;;;;;;;13.77;4.30;;;;;;;6.27;100.00;99540.16;4992101;28;20049;-49
2021/11/26 10:30:32;;;;;;;10.77;3.58;;;;;;;6.51;100.00;99531.50;4992468;28;20051;-48
2021/11/26 10:33:05;;;;;;;8.73;3.55;;;;;;;7.01;100.00;99527.03;4992288;28;20455;-49
2021/11/26 10:35:40;;;;;;;8.13;3.25;;;;;;;7.31;100.00;99511.75;4993086;28;20054;-51
2021/11/26 10:38:26;;;;;;;9.82;3.60;;;;;;;7.19;100.00;99493.94;4980686;28;20129;-51
2021/11/26 10:40:57;;;;;;;14.45;4.88;;;;;;;6.65;100.00;99493.84;4991456;28;20464;-51
2021/11/26 10:43:52;;;;;;;13.93;5.30;;;;;;;6.27;96.00;99490.66;4979971;28;20361;-51
2021/11/26 10:59:50;;;;;;;23.33;7.22;;;;;;;5.89;94.48;99433.34;4991650;28;20039;-49
2021/11/26 11:02:29;;;;;;;28.42;7.65;;;;;;;5.94;94.23;99428.78;4991802;28;20509;-49
2021/11/26 11:04:57;;;;;;;14.30;5.13;;;;;;;6.17;91.55;99418.47;4992911;28;20064;-53
2021/11/26 11:07:24;;;;;;;19.30;5.28;;;;;;;5.91;89.00;99418.47;4991473;28;20150;-49
2021/11/26 11:09:54;;;;;;;15.13;5.50;;;;;;;5.74;88.55;99404.44;4990736;28;20408;-52
2021/11/26 11:12:31;;;;;;;18.02;6.50;;;;;;;6.09;89.78;99400.09;4991158;28;20050;-49
2021/11/26 11:15:02;;;;;;;15.52;5.95;;;;;;;5.86;87.49;99396.84;4986400;28;20141;-47
2021/11/26 11:17:30;;;;;;;15.68;6.90;;;;;;;5.95;87.71;99392.53;4976426;28;20054;-47
2021/11/26 11:20:05;;;;;;;21.38;9.32;;;;;;;5.81;89.60;99379.84;4990656;28;20457;-52
2021/11/26 11:22:34;;;;;;;84.55;46.83;;;;;;;6.04;92.14;99371.19;4991517;28;20034;-49
2021/11/26 11:25:02;;;;;;;91.00;50.40;;;;;;;6.29;96.32;99367.59;4991891;28;20504;-47
2021/11/26 11:27:31;;;;;;;168.07;87.72;;;;;;;6.45;100.00;99360.25;4991548;28;20158;-49
2021/11/26 11:29:58;;;;;;;288.63;146.60;;;;;;;6.45;100.00;99346.72;4990718;28;20399;-48
2021/11/26 11:32:26;;;;;;;273.27;146.98;;;;;;;6.99;100.00;99345.06;4991120;28;20040;-49
2021/11/26 11:34:56;;;;;;;137.57;70.32;;;;;;;6.98;100.00;99329.94;4992329;28;20550;-49
2021/11/26 11:37:28;;;;;;;274.08;141.38;;;;;;;7.16;100.00;99320.31;4991065;28;20116;-48
2021/11/26 11:40:02;;;;;;;258.42;134.32;;;;;;;7.54;100.00;99315.94;4994699;28;20445;-49
2021/11/26 11:42:34;;;;;;;96.10;47.83;;;;;;;7.01;100.00;99297.66;4994398;28;20057;-49
2021/11/26 11:45:12;;;;;;;277.42;137.80;;;;;;;7.54;100.00;99296.97;4996101;28;20444;-49
2021/11/26 11:47:52;;;;;;;210.27;109.80;;;;;;;7.46;100.00;99292.97;4994560;28;20050;-49
2021/11/26 11:50:22;;;;;;;251.98;134.60;;;;;;;7.41;100.00;99289.50;4994971;28;20042;-49